Time;durP1;ratioP1;P1;durP2;ratioP2;P2;SDS_P1;SDS_P2;PMS_P1;PMS_P2;Temp;Humidity;BMP_temperature;BMP_pressure;BME280_temperature;BME280_humidity;BME280_pressure;Samples;Min_cycle;Max_cycle;Signal;HPM_P1;HPM_P2
2023/07/31 00:00:28;;;;;;;0.70;0.70;;;17.40;86.50;;;;;;4996962;28;20022;-77
2023/07/31 00:02:54;;;;;;;0.60;0.60;;;;;;;;;;5001719;28;20151;-77
2023/07/31 00:05:21;;;;;;;0.73;0.73;;;17.30;86.80;;;;;;5009149;28;20022;-77
2023/07/31 00:07:47;;;;;;;0.60;0.60;;;17.20;87.70;;;;;;5021820;28;20021;-77
2023/07/31 00:10:13;;;;;;;0.60;0.60;;;17.10;88.10;;;;;;5020117;28;20030;-77
2023/07/31 00:12:41;;;;;;;0.60;0.60;;;17.00;88.60;;;;;;5021749;28;20033;-77
2023/07/31 00:15:07;;;;;;;0.50;0.50;;;17.00;89.00;;;;;;5022645;28;20057;-79
2023/07/31 00:17:33;;;;;;;1.00;0.70;;;17.00;89.20;;;;;;5027763;28;20488;-76
2023/07/31 00:19:58;;;;;;;0.52;0.52;;;16.90;89.50;;;;;;5033569;28;20041;-77
2023/07/31 00:22:24;;;;;;;0.45;0.45;;;16.90;89.80;;;;;;5034748;28;20022;-77
2023/07/31 00:24:51;;;;;;;0.52;0.52;;;16.80;90.00;;;;;;5029865;28;20033;-78
2023/07/31 00:27:18;;;;;;;0.40;0.40;;;16.80;90.20;;;;;;5028994;28;20046;-78
2023/07/31 00:29:43;;;;;;;0.40;0.40;;;16.90;90.30;;;;;;5026067;28;20082;-79
2023/07/31 00:32:09;;;;;;;0.50;0.50;;;16.90;90.40;;;;;;5022718;28;20455;-77
2023/07/31 00:34:35;;;;;;;0.50;0.50;;;17.00;90.40;;;;;;5020361;28;20033;-76
2023/07/31 00:37:00;;;;;;;0.40;0.40;;;17.10;90.20;;;;;;5034126;28;20036;-76
2023/07/31 00:39:26;;;;;;;0.52;0.52;;;17.10;90.20;;;;;;5027022;28;20047;-78
2023/07/31 00:41:52;;;;;;;0.50;0.50;;;17.10;90.10;;;;;;5026659;28;20026;-77
2023/07/31 00:44:17;;;;;;;0.32;0.32;;;17.10;90.10;;;;;;5020875;28;20026;-78
2023/07/31 00:46:43;;;;;;;0.38;0.38;;;17.10;90.20;;;;;;5027755;28;20030;-77
2023/07/31 00:49:09;;;;;;;0.68;0.68;;;17.00;90.20;;;;;;5025868;28;20088;-77
2023/07/31 00:51:35;;;;;;;0.63;0.63;;;17.00;90.30;;;;;;5028900;28;20366;-78
2023/07/31 00:54:01;;;;;;;0.65;0.52;;;16.90;90.40;;;;;;5033535;28;20017;-77
2023/07/31 00:56:28;;;;;;;0.40;0.40;;;16.90;90.60;;;;;;5037435;28;20029;-78
2023/07/31 00:58:55;;;;;;;0.50;0.50;;;16.90;90.80;;;;;;5031519;28;20107;-77
2023/07/31 01:01:21;;;;;;;0.70;0.70;;;16.80;90.90;;;;;;5028431;28;20064;-77
2023/07/31 01:03:47;;;;;;;0.40;0.40;;;16.80;91.20;;;;;;5023440;28;20096;-77
2023/07/31 01:06:30;;;;;;;0.65;0.65;;;16.80;91.30;;;;;;5027343;28;20044;-78
2023/07/31 01:09:04;;;;;;;1.00;0.60;;;16.80;91.40;;;;;;5031071;28;20029;-77
2023/07/31 01:11:46;;;;;;;0.70;0.70;;;16.80;91.30;;;;;;5047693;28;20033;-77
2023/07/31 01:14:12;;;;;;;0.50;0.50;;;16.90;91.30;;;;;;5032865;28;20022;-77
2023/07/31 01:16:37;;;;;;;0.50;0.50;;;16.90;91.20;;;;;;5032236;28;20065;-77
2023/07/31 01:19:03;;;;;;;0.60;0.60;;;17.00;91.00;;;;;;5030218;28;20026;-78
2023/07/31 01:21:35;;;;;;;0.40;0.40;;;17.00;90.90;;;;;;5014318;28;20023;-78
2023/07/31 01:24:10;;;;;;;0.60;0.60;;;17.00;90.80;;;;;;5005786;28;20023;-78
2023/07/31 01:26:38;;;;;;;0.50;0.50;;;17.00;90.80;;;;;;5025444;28;20018;-78
2023/07/31 01:29:11;;;;;;;0.32;0.32;;;17.10;90.70;;;;;;5025225;28;20494;-77
2023/07/31 01:31:39;;;;;;;0.30;0.30;;;17.20;90.60;;;;;;5009180;28;20030;-77
2023/07/31 01:34:07;;;;;;;0.50;0.50;;;17.20;90.50;;;;;;5002613;28;20080;-80
2023/07/31 01:36:33;;;;;;;0.47;0.47;;;17.20;90.30;;;;;;5002359;28;20046;-78
2023/07/31 01:39:00;;;;;;;0.43;0.43;;;17.20;90.30;;;;;;5022351;28;20034;-77
2023/07/31 01:41:26;;;;;;;0.30;0.30;;;17.20;90.20;;;;;;5013591;28;20034;-77
2023/07/31 01:43:51;;;;;;;0.25;0.25;;;17.10;90.10;;;;;;5019149;28;20034;-77
2023/07/31 01:46:17;;;;;;;0.60;0.60;;;17.10;90.10;;;;;;5024202;28;20080;-77
2023/07/31 01:48:43;;;;;;;0.73;0.50;;;17.10;90.00;;;;;;5022747;28;20025;-75
2023/07/31 01:51:08;;;;;;;0.32;0.32;;;17.00;90.00;;;;;;5020999;28;20034;-77
2023/07/31 01:53:34;;;;;;;0.32;0.32;;;17.00;90.10;;;;;;5000141;28;20058;-78
2023/07/31 01:56:00;;;;;;;0.22;0.22;;;17.00;90.20;;;;;;4997513;28;20018;-78
2023/07/31 01:58:25;;;;;;;0.50;0.50;;;17.10;90.20;;;;;;4996662;28;20102;-77
2023/07/31 02:00:51;;;;;;;0.30;0.30;;;17.10;90.20;;;;;;4996644;28;20053;-75
2023/07/31 02:03:17;;;;;;;0.57;0.57;;;17.10;90.20;;;;;;4997044;28;20054;-77
2023/07/31 02:05:49;;;;;;;0.32;0.32;;;17.10;90.30;;;;;;4996361;28;20495;-77
2023/07/31 02:08:16;;;;;;;0.40;0.40;;;17.20;90.30;;;;;;5012936;28;20029;-76
2023/07/31 02:10:42;;;;;;;0.40;0.40;;;17.20;90.40;;;;;;5014664;28;20022;-78
2023/07/31 02:13:07;;;;;;;0.40;0.40;;;17.20;90.40;;;;;;5031012;28;20055;-77
2023/07/31 02:15:34;;;;;;;0.50;0.50;;;17.30;90.50;;;;;;5016318;28;20068;-78
2023/07/31 02:18:00;;;;;;;0.50;0.50;;;17.30;90.50;;;;;;5019407;28;20076;-78
2023/07/31 02:20:26;;;;;;;0.30;0.30;;;17.30;90.40;;;;;;5018379;28;20030;-78
2023/07/31 02:22:51;;;;;;;0.50;0.50;;;17.40;90.40;;;;;;5017522;28;20029;-78
2023/07/31 02:25:17;;;;;;;0.40;0.40;;;17.40;90.50;;;;;;5016057;28;20049;-77
2023/07/31 02:27:42;;;;;;;0.47;0.47;;;17.40;90.50;;;;;;5018276;28;20022;-77
2023/07/31 02:30:09;;;;;;;0.50;0.50;;;17.40;90.50;;;;;;5016162;28;20036;-77
2023/07/31 02:32:34;;;;;;;0.32;0.32;;;17.40;90.40;;;;;;5016350;28;20026;-78
2023/07/31 02:35:00;;;;;;;0.60;0.60;;;17.40;90.50;;;;;;5016680;28;20548;-77
2023/07/31 02:37:26;;;;;;;0.50;0.50;;;17.40;90.50;;;;;;5016994;28;20064;-78
2023/07/31 02:39:52;;;;;;;0.47;0.47;;;17.50;90.50;;;;;;5017742;28;20022;-78
2023/07/31 02:42:17;;;;;;;0.50;0.50;;;17.50;90.60;;;;;;5017113;28;20022;-76
2023/07/31 02:44:43;;;;;;;0.50;0.50;;;17.50;90.60;;;;;;5003342;28;20026;-77
2023/07/31 02:47:09;;;;;;;0.30;0.30;;;17.50;90.60;;;;;;5005910;28;20029;-77
2023/07/31 02:49:34;;;;;;;0.60;0.60;;;17.50;90.60;;;;;;5000986;28;20026;-77
2023/07/31 02:52:00;;;;;;;0.60;0.60;;;17.40;90.70;;;;;;4997942;28;20515;-77
2023/07/31 02:54:26;;;;;;;0.73;0.73;;;17.30;90.80;;;;;;5008963;28;20030;-77
2023/07/31 02:56:52;;;;;;;0.50;0.50;;;17.30;91.00;;;;;;5016794;28;20399;-78
2023/07/31 02:59:18;;;;;;;0.90;0.80;;;17.20;91.10;;;;;;5016765;28;20061;-77
2023/07/31 03:01:44;;;;;;;0.57;0.57;;;17.10;91.30;;;;;;5017822;28;20030;-78
2023/07/31 03:04:09;;;;;;;0.82;0.70;;;17.00;91.40;;;;;;5016063;28;20030;-77
2023/07/31 03:06:35;;;;;;;0.57;0.57;;;16.90;91.70;;;;;;5010830;28;20092;-77
2023/07/31 03:09:00;;;;;;;0.60;0.60;;;16.80;92.00;;;;;;5017321;28;20030;-76
2023/07/31 03:11:26;;;;;;;0.80;0.80;;;16.60;92.30;;;;;;5015217;28;20026;-77
2023/07/31 03:13:52;;;;;;;0.68;0.68;;;16.60;92.60;;;;;;5015296;28;20030;-77
2023/07/31 03:16:18;;;;;;;0.60;0.60;;;16.60;92.70;;;;;;5016136;28;20064;-77
2023/07/31 03:18:43;;;;;;;0.50;0.50;;;16.50;92.90;;;;;;5015503;28;20099;-77
2023/07/31 03:21:09;;;;;;;0.57;0.57;;;16.50;93.20;;;;;;5017399;28;20029;-78
2023/07/31 03:23:34;;;;;;;0.63;0.63;;;16.40;93.30;;;;;;5002758;28;20197;-78
2023/07/31 03:26:03;;;;;;;0.52;0.52;;;16.30;93.50;;;;;;4997079;28;20023;-78
2023/07/31 03:28:29;;;;;;;0.60;0.60;;;16.30;93.70;;;;;;4999444;28;20124;-78
2023/07/31 03:30:55;;;;;;;0.50;0.50;;;16.20;93.90;;;;;;4998096;28;20028;-77
2023/07/31 03:33:21;;;;;;;0.50;0.50;;;16.10;94.20;;;;;;4999807;28;20022;-77
2023/07/31 03:35:47;;;;;;;0.77;0.77;;;16.10;94.50;;;;;;5004791;28;20038;-77
2023/07/31 03:38:12;;;;;;;0.55;0.55;;;16.10;94.70;;;;;;5011542;28;20121;-77
2023/07/31 03:40:38;;;;;;;0.70;0.70;;;16.10;94.90;;;;;;5015615;28;20403;-78
2023/07/31 03:43:04;;;;;;;1.00;1.00;;;16.10;95.20;;;;;;5015027;28;20037;-78
2023/07/31 03:45:30;;;;;;;1.10;1.00;;;16.10;95.40;;;;;;4997013;28;20102;-78
2023/07/31 03:47:55;;;;;;;0.88;0.88;;;16.20;95.40;;;;;;5012967;28;20045;-78
2023/07/31 03:50:21;;;;;;;0.98;0.98;;;16.30;95.40;;;;;;5001712;28;20041;-78
2023/07/31 03:52:47;;;;;;;0.90;0.90;;;16.40;95.20;;;;;;5003440;28;20085;-77
2023/07/31 03:55:13;;;;;;;0.90;0.90;;;16.40;95.20;;;;;;5031378;28;20034;-75
2023/07/31 03:57:38;;;;;;;0.90;0.90;;;16.30;95.30;;;;;;5034663;28;20569;-77
2023/07/31 04:00:04;;;;;;;1.58;1.08;;;16.30;95.40;;;;;;5034331;28;20026;-77
2023/07/31 04:02:30;;;;;;;0.90;0.90;;;16.40;95.60;;;;;;5033985;28;20038;-77
2023/07/31 04:04:56;;;;;;;1.33;1.10;;;16.30;95.60;;;;;;5033790;28;20114;-77
2023/07/31 04:07:21;;;;;;;1.00;0.90;;;16.20;95.80;;;;;;5035490;28;20076;-77
2023/07/31 04:09:47;;;;;;;1.45;0.90;;;16.30;96.00;;;;;;5036716;28;20038;-79
2023/07/31 04:12:13;;;;;;;1.33;1.00;;;16.30;96.10;;;;;;5034461;28;20033;-78
2023/07/31 04:14:38;;;;;;;0.98;0.98;;;16.40;96.10;;;;;;5016172;28;20022;-77
2023/07/31 04:17:04;;;;;;;0.82;0.80;;;16.50;95.90;;;;;;5015822;28;20033;-79
2023/07/31 04:19:30;;;;;;;0.70;0.70;;;16.50;95.90;;;;;;5018403;28;20014;-78
2023/07/31 04:21:55;;;;;;;0.85;0.85;;;16.40;96.00;;;;;;5021584;28;20022;-79
2023/07/31 04:24:24;;;;;;;0.77;0.77;;;16.40;96.10;;;;;;5019497;28;20132;-79
2023/07/31 04:26:53;;;;;;;0.90;0.90;;;16.40;96.20;;;;;;5019855;28;20139;-79
2023/07/31 04:29:19;;;;;;;0.77;0.77;;;16.40;96.30;;;;;;5021605;28;20117;-79
2023/07/31 04:31:45;;;;;;;0.70;0.70;;;16.40;96.40;;;;;;5019251;28;20026;-78
2023/07/31 04:34:14;;;;;;;1.58;0.90;;;16.40;96.50;;;;;;5021437;28;20045;-78
2023/07/31 04:36:40;;;;;;;0.73;0.73;;;16.40;96.50;;;;;;5032918;28;20022;-77
2023/07/31 04:39:06;;;;;;;0.85;0.80;;;16.40;96.60;;;;;;5027688;28;20030;-78
2023/07/31 04:41:31;;;;;;;0.90;0.90;;;16.40;96.70;;;;;;5018533;28;20076;-78
2023/07/31 04:43:57;;;;;;;1.42;0.98;;;16.40;96.80;;;;;;5017769;28;20025;-77
2023/07/31 04:46:22;;;;;;;0.93;0.90;;;16.40;96.90;;;;;;5017735;28;20049;-77
2023/07/31 04:48:48;;;;;;;1.00;1.00;;;16.50;96.90;;;;;;5017516;28;20077;-78
2023/07/31 04:51:14;;;;;;;1.00;1.00;;;16.50;96.90;;;;;;5017454;28;20037;-77
2023/07/31 04:53:39;;;;;;;0.85;0.85;;;16.50;96.90;;;;;;5017200;28;20153;-77
2023/07/31 04:56:05;;;;;;;0.80;0.80;;;16.60;96.80;;;;;;5015287;28;20521;-77
2023/07/31 04:58:31;;;;;;;0.90;0.90;;;16.60;96.80;;;;;;5016221;28;20033;-78
2023/07/31 05:00:56;;;;;;;0.73;0.73;;;16.60;96.80;;;;;;5017094;28;20412;-79
2023/07/31 05:03:22;;;;;;;0.80;0.80;;;16.60;96.80;;;;;;5016504;28;20026;-78
2023/07/31 05:05:48;;;;;;;0.77;0.77;;;16.70;96.80;;;;;;5017651;28;20088;-78
2023/07/31 05:08:14;;;;;;;0.70;0.70;;;16.80;96.80;;;;;;5017194;28;20022;-78
2023/07/31 05:10:39;;;;;;;0.70;0.70;;;16.90;96.60;;;;;;5019421;28;20125;-77
2023/07/31 05:13:05;;;;;;;0.73;0.73;;;17.00;96.40;;;;;;5018585;28;20026;-77
2023/07/31 05:15:31;;;;;;;0.70;0.70;;;17.10;96.30;;;;;;5016317;28;20033;-78
2023/07/31 05:17:57;;;;;;;0.90;0.90;;;17.10;96.20;;;;;;5017702;28;20088;-78
2023/07/31 05:20:22;;;;;;;0.80;0.80;;;17.30;96.10;;;;;;5020660;28;20037;-77
2023/07/31 05:22:48;;;;;;;1.70;1.50;;;17.70;95.80;;;;;;5037803;28;20030;-77
2023/07/31 05:25:14;;;;;;;4.95;1.05;;;18.00;95.10;;;;;;5034433;28;20080;-77
2023/07/31 05:27:39;;;;;;;1.17;1.13;;;18.40;94.20;;;;;;5016366;28;20085;-79
2023/07/31 05:30:06;;;;;;;1.05;1.05;;;18.60;93.60;;;;;;5017738;28;20038;-77
2023/07/31 05:32:31;;;;;;;1.20;1.08;;;18.70;93.20;;;;;;5019208;28;20021;-77
2023/07/31 05:34:57;;;;;;;1.02;0.93;;;18.80;92.90;;;;;;5016222;28;20096;-77
2023/07/31 05:37:24;;;;;;;0.70;0.70;;;19.10;92.90;;;;;;5022609;28;20030;-78
2023/07/31 05:39:49;;;;;;;0.93;0.90;;;20.30;91.60;;;;;;5017832;28;20026;-77
2023/07/31 05:42:15;;;;;;;0.90;0.80;;;21.40;88.50;;;;;;5017604;28;20044;-77
2023/07/31 05:44:40;;;;;;;0.70;0.70;;;22.20;84.40;;;;;;5017405;28;20018;-78
2023/07/31 05:47:06;;;;;;;0.68;0.68;;;22.80;80.70;;;;;;5017014;28;20061;-77
2023/07/31 05:49:32;;;;;;;0.77;0.77;;;23.20;77.30;;;;;;5018458;28;20494;-78
2023/07/31 05:51:58;;;;;;;0.80;0.80;;;23.20;75.00;;;;;;5018587;28;20025;-78
2023/07/31 05:54:23;;;;;;;0.98;0.98;;;23.30;73.90;;;;;;5018321;28;20145;-78
2023/07/31 05:56:49;;;;;;;1.00;1.00;;;23.20;73.10;;;;;;5017578;28;20398;-78
2023/07/31 05:59:16;;;;;;;1.30;1.20;;;22.80;73.10;;;;;;5018434;28;20030;-77
2023/07/31 06:01:42;;;;;;;1.00;0.90;;;22.30;73.90;;;;;;5023636;28;20026;-78
2023/07/31 06:04:08;;;;;;;1.33;1.23;;;22.00;75.00;;;;;;5021376;28;20114;-78
2023/07/31 06:06:34;;;;;;;1.92;1.60;;;22.00;75.10;;;;;;5020331;28;20034;-77
2023/07/31 06:09:00;;;;;;;1.23;1.10;;;22.30;74.70;;;;;;5019376;28;20025;-78
2023/07/31 06:11:25;;;;;;;1.10;1.00;;;22.90;72.80;;;;;;5022138;28;20125;-77
2023/07/31 06:13:51;;;;;;;1.20;1.10;;;23.50;71.00;;;;;;5039287;28;20029;-78
2023/07/31 06:16:17;;;;;;;1.25;1.15;;;24.20;68.50;;;;;;5026907;28;20086;-78
2023/07/31 06:18:43;;;;;;;2.35;1.42;;;25.20;65.30;;;;;;5027063;28;20201;-79
2023/07/31 06:21:09;;;;;;;2.47;1.50;;;25.60;63.50;;;;;;5024800;28;20022;-78
2023/07/31 06:23:35;;;;;;;2.22;1.58;;;25.80;61.50;;;;;;5030590;28;20053;-77
2023/07/31 06:26:01;;;;;;;3.13;2.00;;;25.70;60.70;;;;;;5027594;28;20470;-77
2023/07/31 06:28:31;;;;;;;2.58;1.45;;;25.20;60.40;;;;;;5018685;28;20098;-77
2023/07/31 06:30:58;;;;;;;1.48;1.38;;;24.80;62.00;;;;;;5022098;28;20022;-78
2023/07/31 06:33:24;;;;;;;2.45;1.40;;;24.70;63.00;;;;;;5017805;28;20022;-79
2023/07/31 06:35:50;;;;;;;1.40;1.30;;;24.50;63.00;;;;;;5020415;28;20033;-78
2023/07/31 06:38:18;;;;;;;1.83;1.33;;;24.20;63.10;;;;;;5018352;28;20395;-77
2023/07/31 06:40:44;;;;;;;2.13;1.27;;;23.60;64.00;;;;;;5018778;28;20483;-77
2023/07/31 06:43:09;;;;;;;1.30;1.02;;;22.90;65.60;;;;;;5034990;28;20036;-78
2023/07/31 06:45:35;;;;;;;1.30;1.20;;;22.50;67.00;;;;;;5018564;28;20455;-77
2023/07/31 06:48:02;;;;;;;1.38;1.00;;;22.10;68.10;;;;;;5018923;28;20330;-77
2023/07/31 06:50:28;;;;;;;3.15;1.20;;;21.70;69.20;;;;;;5018591;28;20025;-78
2023/07/31 06:52:54;;;;;;;2.03;1.40;;;21.50;69.80;;;;;;5015463;28;20036;-77
2023/07/31 06:55:21;;;;;;;1.40;1.30;;;21.40;70.20;;;;;;5017045;28;20030;-78
2023/07/31 06:57:49;;;;;;;3.17;1.60;;;21.40;70.90;;;;;;5018533;28;20549;-78
2023/07/31 07:00:15;;;;;;;1.70;1.60;;;21.50;71.00;;;;;;5017208;28;20109;-76
2023/07/31 07:02:41;;;;;;;3.00;1.40;;;21.60;70.40;;;;;;5015449;28;20022;-77
2023/07/31 07:05:08;;;;;;;2.95;1.45;;;21.60;70.00;;;;;;5015601;28;20093;-77
2023/07/31 07:07:34;;;;;;;2.05;1.55;;;21.60;70.00;;;;;;5017130;28;20030;-77
2023/07/31 07:09:59;;;;;;;1.83;1.60;;;21.50;70.50;;;;;;5032730;28;20037;-77
2023/07/31 07:12:25;;;;;;;2.15;1.40;;;21.40;71.00;;;;;;5035345;28;20022;-77
2023/07/31 07:14:52;;;;;;;2.22;1.33;;;21.50;71.20;;;;;;5034544;28;20032;-77
2023/07/31 07:17:19;;;;;;;1.30;1.13;;;21.60;71.30;;;;;;5034906;28;20034;-77
2023/07/31 07:19:45;;;;;;;1.25;1.15;;;21.70;70.90;;;;;;5035599;28;20022;-78
2023/07/31 07:22:11;;;;;;;1.60;1.50;;;21.80;70.00;;;;;;5027829;28;20034;-77
2023/07/31 07:24:37;;;;;;;1.85;1.10;;;22.00;69.40;;;;;;5032581;28;20130;-78
2023/07/31 07:27:03;;;;;;;2.97;1.63;;;22.20;68.40;;;;;;5035266;28;20229;-78
2023/07/31 07:29:29;;;;;;;1.50;1.15;;;22.30;67.80;;;;;;5033676;28;20013;-77
2023/07/31 07:31:55;;;;;;;1.30;1.20;;;22.50;67.80;;;;;;5033487;28;20057;-77
2023/07/31 07:34:24;;;;;;;1.90;1.20;;;22.60;67.30;;;;;;5023377;28;20037;-78
2023/07/31 07:36:49;;;;;;;1.83;1.30;;;22.80;66.40;;;;;;5021543;28;20022;-78
2023/07/31 07:39:15;;;;;;;2.35;1.42;;;22.70;66.00;;;;;;5024068;28;20022;-78
2023/07/31 07:41:41;;;;;;;1.63;1.30;;;22.50;66.40;;;;;;5023830;28;20022;-77
2023/07/31 07:44:08;;;;;;;3.38;1.27;;;22.40;66.90;;;;;;5019827;28;20021;-77
2023/07/31 07:46:34;;;;;;;1.48;1.38;;;22.20;66.90;;;;;;5017717;28;20034;-77
2023/07/31 07:49:00;;;;;;;1.52;1.27;;;22.10;67.60;;;;;;5005456;28;20116;-78
2023/07/31 07:51:25;;;;;;;1.38;1.27;;;22.10;67.40;;;;;;5002848;28;20040;-78
2023/07/31 07:53:51;;;;;;;1.45;1.13;;;22.10;67.70;;;;;;5013066;28;20029;-79
2023/07/31 07:56:17;;;;;;;4.25;1.83;;;22.40;67.20;;;;;;4998386;28;20023;-78
2023/07/31 07:58:42;;;;;;;1.63;1.48;;;22.50;66.60;;;;;;4998724;28;20026;-77
2023/07/31 08:01:08;;;;;;;1.70;1.23;;;22.60;66.10;;;;;;4998789;28;20027;-78
2023/07/31 08:03:34;;;;;;;1.38;1.13;;;22.70;65.60;;;;;;5000042;28;20131;-77
2023/07/31 08:06:00;;;;;;;2.13;1.40;;;22.80;65.20;;;;;;4999908;28;20010;-78
2023/07/31 08:08:26;;;;;;;1.60;1.10;;;22.80;64.70;;;;;;5008728;28;20018;-79
2023/07/31 08:10:52;;;;;;;1.30;1.20;;;22.70;64.50;;;;;;5008946;28;20025;-76
2023/07/31 08:13:18;;;;;;;2.08;1.50;;;22.80;64.90;;;;;;4996479;28;20031;-77
2023/07/31 08:15:43;;;;;;;1.95;1.40;;;22.90;64.70;;;;;;4997255;28;20038;-78
2023/07/31 08:18:11;;;;;;;1.67;1.05;;;23.20;63.90;;;;;;4999441;28;20126;-78
2023/07/31 08:20:36;;;;;;;2.05;1.77;;;23.40;63.40;;;;;;4998135;28;20102;-77
2023/07/31 08:23:02;;;;;;;2.20;1.50;;;23.40;62.00;;;;;;4996415;28;20053;-77
2023/07/31 08:25:29;;;;;;;1.60;1.50;;;23.40;62.60;;;;;;4994956;28;20026;-78
2023/07/31 08:27:55;;;;;;;1.77;1.50;;;23.50;62.60;;;;;;4999875;28;20026;-77
2023/07/31 08:30:21;;;;;;;1.55;1.35;;;23.70;61.80;;;;;;4996280;28;20018;-77
2023/07/31 08:32:47;;;;;;;1.85;1.33;;;23.80;61.40;;;;;;4997459;28;20110;-77
2023/07/31 08:35:13;;;;;;;1.65;1.25;;;23.90;61.30;;;;;;4998670;28;20192;-78
2023/07/31 08:37:38;;;;;;;1.88;1.42;;;24.00;60.70;;;;;;5000003;28;20037;-77
2023/07/31 08:40:05;;;;;;;1.63;1.52;;;23.90;60.20;;;;;;5016097;28;20093;-77
2023/07/31 08:42:32;;;;;;;1.88;1.35;;;23.90;60.40;;;;;;5002917;28;20057;-77
2023/07/31 08:44:59;;;;;;;2.53;1.70;;;24.00;60.30;;;;;;4995542;28;20058;-78
2023/07/31 08:47:26;;;;;;;3.70;1.63;;;24.00;59.50;;;;;;4997348;28;20086;-77
2023/07/31 08:49:54;;;;;;;2.90;1.50;;;23.80;59.50;;;;;;4999295;28;20027;-77
2023/07/31 08:52:19;;;;;;;2.72;1.38;;;23.40;60.60;;;;;;4998284;28;20579;-78
2023/07/31 08:54:45;;;;;;;1.60;1.50;;;23.10;61.50;;;;;;5001242;28;20030;-77
2023/07/31 08:57:12;;;;;;;2.20;1.73;;;22.80;62.30;;;;;;5009858;28;20029;-77
2023/07/31 08:59:39;;;;;;;1.75;1.30;;;22.50;62.70;;;;;;5003104;28;20030;-76
2023/07/31 09:02:08;;;;;;;3.60;1.45;;;22.30;63.70;;;;;;5008878;28;20026;-78
2023/07/31 09:04:35;;;;;;;1.92;1.30;;;22.10;64.50;;;;;;5004858;28;20037;-77
2023/07/31 09:07:04;;;;;;;3.47;1.67;;;22.00;65.10;;;;;;5002466;28;20019;-77
2023/07/31 09:09:31;;;;;;;7.07;1.80;;;22.10;65.10;;;;;;5018956;28;20368;-77
2023/07/31 09:11:58;;;;;;;1.92;1.67;;;22.40;65.50;;;;;;5020929;28;20014;-78
2023/07/31 09:14:26;;;;;;;1.77;1.48;;;22.80;64.60;;;;;;5023189;28;20106;-77
2023/07/31 09:16:58;;;;;;;1.50;1.20;;;23.20;63.10;;;;;;5031314;28;20034;-78
2023/07/31 09:19:29;;;;;;;1.83;1.45;;;23.70;61.70;;;;;;5046045;28;20034;-78
2023/07/31 09:21:55;;;;;;;2.67;1.35;;;24.10;60.50;;;;;;5024698;28;20097;-78
2023/07/31 09:24:32;;;;;;;1.67;1.50;;;24.40;59.30;;;;;;5022626;28;20042;-77
2023/07/31 09:26:58;;;;;;;1.73;1.30;;;24.50;58.60;;;;;;5025472;28;20027;-78
2023/07/31 09:29:26;;;;;;;1.42;1.30;;;24.40;58.50;;;;;;5024654;28;20029;-78
2023/07/31 09:31:52;;;;;;;2.40;1.45;;;24.30;58.00;;;;;;5024841;28;20022;-78
2023/07/31 09:34:19;;;;;;;2.15;1.55;;;24.20;58.50;;;;;;5023848;28;20025;-78
2023/07/31 09:36:49;;;;;;;2.47;1.50;;;24.20;59.20;;;;;;5023136;28;20037;-77
2023/07/31 09:39:17;;;;;;;1.70;1.20;;;24.40;58.90;;;;;;5021945;28;20030;-78
2023/07/31 09:41:53;;;;;;;1.83;1.20;;;24.60;58.00;;;;;;5023355;28;20022;-78
2023/07/31 09:44:19;;;;;;;2.20;1.20;;;24.70;57.70;;;;;;5041443;28;20108;-78
2023/07/31 09:46:46;;;;;;;1.77;1.48;;;24.60;57.70;;;;;;5022395;28;20022;-77
2023/07/31 09:49:13;;;;;;;3.53;1.20;;;24.50;58.10;;;;;;5018851;28;20098;-80
2023/07/31 09:51:41;;;;;;;2.35;1.38;;;24.60;57.80;;;;;;5023750;28;20049;-78
2023/07/31 09:54:16;;;;;;;3.25;1.60;;;24.60;57.20;;;;;;5022281;28;20022;-78
2023/07/31 09:56:49;;;;;;;2.58;1.33;;;24.30;57.70;;;;;;5025960;28;20268;-77
2023/07/31 09:59:16;;;;;;;2.47;1.52;;;24.40;58.60;;;;;;5026113;28;20033;-77
2023/07/31 10:01:45;;;;;;;2.97;1.70;;;24.70;57.40;;;;;;5026984;28;20030;-79
2023/07/31 10:04:14;;;;;;;3.38;1.42;;;24.80;56.90;;;;;;5027292;28;20036;-77
2023/07/31 10:06:42;;;;;;;2.75;1.80;;;24.60;56.60;;;;;;5036956;28;20033;-78
2023/07/31 10:09:10;;;;;;;3.10;1.65;;;24.60;57.20;;;;;;5030589;28;20010;-78
2023/07/31 10:11:50;;;;;;;1.95;1.20;;;24.70;57.50;;;;;;5049534;28;20029;-77
2023/07/31 10:14:20;;;;;;;3.40;1.77;;;24.80;57.40;;;;;;5020092;28;20057;-78
2023/07/31 10:16:46;;;;;;;4.38;1.88;;;25.00;56.30;;;;;;5021357;28;20075;-78
2023/07/31 10:19:12;;;;;;;1.83;1.58;;;25.00;56.20;;;;;;5022973;28;20436;-78
2023/07/31 10:21:38;;;;;;;1.33;1.23;;;25.00;56.30;;;;;;5021880;28;20030;-78
2023/07/31 10:24:05;;;;;;;1.88;1.40;;;25.20;56.10;;;;;;5008230;28;20030;-78
2023/07/31 10:26:33;;;;;;;1.95;1.65;;;25.50;55.50;;;;;;5003208;28;20113;-78
2023/07/31 10:29:00;;;;;;;1.50;1.40;;;25.80;55.00;;;;;;4999527;28;20419;-77
2023/07/31 10:31:30;;;;;;;2.88;1.50;;;26.00;54.80;;;;;;4997332;28;20026;-78
2023/07/31 10:33:58;;;;;;;2.95;1.60;;;26.10;54.10;;;;;;4998139;28;20022;-76
2023/07/31 10:36:25;;;;;;;2.25;2.05;;;26.10;53.00;;;;;;4999035;28;20511;-78
2023/07/31 10:38:51;;;;;;;2.20;1.52;;;25.80;53.60;;;;;;5016516;28;20030;-78
2023/07/31 10:41:17;;;;;;;1.77;1.52;;;25.60;53.90;;;;;;5019333;28;20022;-78
2023/07/31 10:43:44;;;;;;;4.32;2.28;;;25.60;54.20;;;;;;5034870;28;20018;-77
2023/07/31 10:46:12;;;;;;;3.35;2.00;;;25.70;53.00;;;;;;5020437;28;20022;-78
2023/07/31 10:48:41;;;;;;;4.57;1.92;;;25.60;53.30;;;;;;5021665;28;20026;-78
2023/07/31 10:51:12;;;;;;;2.50;2.08;;;25.60;52.80;;;;;;5021598;28;20427;-77
2023/07/31 10:53:39;;;;;;;4.00;2.22;;;25.30;53.20;;;;;;5023648;28;20036;-79
2023/07/31 10:56:07;;;;;;;2.50;2.30;;;25.10;53.40;;;;;;5022028;28;20021;-80
2023/07/31 10:58:33;;;;;;;2.05;1.70;;;24.90;54.40;;;;;;5023633;28;20467;-78
2023/07/31 11:01:04;;;;;;;1.60;1.48;;;24.90;54.70;;;;;;5022792;28;20029;-77
2023/07/31 11:03:52;;;;;;;2.08;1.85;;;24.90;54.70;;;;;;5024629;28;20026;-78
2023/07/31 11:06:18;;;;;;;3.05;1.92;;;;;;;;;;5002342;28;20112;-77
2023/07/31 11:08:45;;;;;;;2.17;1.80;;;;;;;;;;5017370;28;20026;-78
2023/07/31 11:11:12;;;;;;;2.10;1.48;;;;;;;;;;5022326;28;20022;-78
2023/07/31 11:13:44;;;;;;;1.80;1.40;;;;;;;;;;5024930;28;20424;-78
2023/07/31 11:16:11;;;;;;;2.20;1.80;;;;;;;;;;5022603;28;20037;-78
2023/07/31 11:18:39;;;;;;;4.13;1.80;;;;;;;;;;5022157;28;20030;-77
2023/07/31 11:21:05;;;;;;;1.88;1.60;;;;;;;;;;5026942;28;20041;-78
2023/07/31 11:23:32;;;;;;;1.73;1.30;;;;;;;;;;5029760;28;20026;-77
2023/07/31 11:26:02;;;;;;;2.53;1.60;;;;;;;;;;5030995;28;20053;-78
2023/07/31 11:28:32;;;;;;;2.05;1.65;;;;;;;;;;5012021;28;20136;-78
2023/07/31 11:30:58;;;;;;;7.47;2.55;;;;;;;;;;5006310;28;20463;-77
2023/07/31 11:33:24;;;;;;;2.28;1.80;;;;;;;;;;5003123;28;20030;-78
2023/07/31 11:35:50;;;;;;;2.20;1.58;;;;;;;;;;5004352;28;20060;-78
2023/07/31 11:38:30;;;;;;;1.55;1.45;;;;;;;;;;5014429;28;20025;-78
2023/07/31 11:40:58;;;;;;;2.05;1.50;;;;;;;;;;5018505;28;20522;-77
2023/07/31 11:43:24;;;;;;;2.58;1.98;;;;;;;;;;5032354;28;20042;-77
2023/07/31 11:46:02;;;;;;;2.25;1.50;;;;;;;;;;5027986;28;20022;-79
2023/07/31 11:48:29;;;;;;;2.97;1.80;;;;;;;;;;5004834;28;20033;-78
2023/07/31 11:50:58;;;;;;;2.08;1.60;;;;;;;;;;5001414;28;20018;-78
2023/07/31 11:53:36;;;;;;;2.08;1.70;;;;;;;;;;4999881;28;20053;-78
2023/07/31 11:56:04;;;;;;;2.15;1.50;;;;;;;;;;5001421;28;20030;-78
2023/07/31 11:58:31;;;;;;;2.50;1.55;;;;;;;;;;4997613;28;20034;-76
2023/07/31 12:00:58;;;;;;;1.70;1.52;;;;;;;;;;4998383;28;20031;-77
2023/07/31 12:03:24;;;;;;;1.55;1.45;;;;;;;;;;4998373;28;20038;-78
2023/07/31 12:05:50;;;;;;;1.55;1.42;;;;;;;;;;5000211;28;20027;-78
2023/07/31 12:08:16;;;;;;;2.47;1.90;;;;;;;;;;5018327;28;20431;-78
2023/07/31 12:10:44;;;;;;;1.60;1.50;;;;;;;;;;5020368;28;20026;-78
2023/07/31 12:13:20;;;;;;;2.35;1.50;;;;;;;;;;5018719;28;20014;-77
2023/07/31 12:15:47;;;;;;;2.03;1.65;;;;;;;;;;5032711;28;20030;-77
2023/07/31 12:18:19;;;;;;;2.25;1.73;;;;;;;;;;5017740;28;20026;-78
2023/07/31 12:20:49;;;;;;;1.90;1.40;;;;;;;;;;5021133;28;20040;-78
2023/07/31 12:23:15;;;;;;;1.73;1.63;;;;;;;;;;5019121;28;20096;-78
2023/07/31 12:25:41;;;;;;;1.50;1.40;;;;;;;;;;5021261;28;20116;-78
2023/07/31 12:28:11;;;;;;;1.60;1.45;;;;;;;;;;5021999;28;20026;-78
2023/07/31 12:30:38;;;;;;;1.90;1.70;;;;;;;;;;5024605;28;20058;-80
2023/07/31 12:33:14;;;;;;;2.97;1.70;;;;;;;;;;5027207;28;20022;-78
2023/07/31 12:35:45;;;;;;;2.20;1.95;;;;;;;;;;5027902;28;20034;-78
2023/07/31 12:38:12;;;;;;;1.83;1.60;;;;;;;;;;5034622;28;20021;-76
2023/07/31 12:40:39;;;;;;;2.85;1.50;;;;;;;;;;5031531;28;20014;-79
2023/07/31 12:43:05;;;;;;;2.10;1.90;;;;;;;;;;5041763;28;20029;-79
2023/07/31 12:45:32;;;;;;;2.40;1.88;;;;;;;;;;5025430;28;20033;-79
2023/07/31 12:47:59;;;;;;;1.70;1.60;;;;;;;;;;5025714;28;20014;-77
2023/07/31 12:50:25;;;;;;;2.05;1.75;;;;;;;;;;5023295;28;20054;-77
2023/07/31 12:52:52;;;;;;;1.52;1.42;;;;;;;;;;5027045;28;20021;-79
2023/07/31 12:55:18;;;;;;;1.75;1.65;;;;;;;;;;5022707;28;20022;-77
2023/07/31 12:57:44;;;;;;;1.88;1.65;;;;;;;;;;5028772;28;20021;-77
2023/07/31 13:00:11;;;;;;;2.08;1.63;;;;;;;;;;5033950;28;20096;-77